Time;durP1;ratioP1;P1;durP2;ratioP2;P2;SDS_P1;SDS_P2;PMS_P1;PMS_P2;Temp;Humidity;BMP_temperature;BMP_pressure;BME280_temperature;BME280_humidity;BME280_pressure;Samples;Min_cycle;Max_cycle;Signal;HPM_P1;HPM_P2
2021/10/26 00:02:17;;;;;;;7.40;4.18;;;;;;;2.17;95.45;96155.88;5104157;27;20055;-67
2021/10/26 00:04:44;;;;;;;7.57;3.85;;;;;;;2.13;95.06;96160.50;5101389;27;20536;-67
2021/10/26 00:07:12;;;;;;;10.35;5.15;;;;;;;2.06;94.88;96144.84;5102622;28;20139;-68
2021/10/26 00:09:38;;;;;;;12.80;6.25;;;;;;;1.97;94.77;96125.19;5083827;28;20112;-67
2021/10/26 00:12:06;;;;;;;7.20;4.45;;;;;;;2.05;94.11;96147.56;5105618;27;20052;-68
2021/10/26 00:14:32;;;;;;;9.35;4.30;;;;;;;2.06;94.22;96146.63;5100763;28;20071;-68
2021/10/26 00:17:00;;;;;;;10.23;4.47;;;;;;;1.99;94.46;96138.69;5099744;27;22033;-67
2021/10/26 00:19:27;;;;;;;9.38;3.95;;;;;;;1.90;95.49;96139.56;5102193;28;20051;-67
2021/10/26 00:21:54;;;;;;;8.80;4.63;;;;;;;1.86;96.02;96149.31;5101214;27;20040;-67
2021/10/26 00:24:21;;;;;;;8.88;4.38;;;;;;;1.86;95.58;96143.38;5103013;28;20501;-68
2021/10/26 00:26:48;;;;;;;13.88;3.90;;;;;;;1.85;95.31;96142.53;5103247;28;20055;-67
2021/10/26 00:29:15;;;;;;;8.02;3.53;;;;;;;1.83;95.18;96139.31;5089245;27;20043;-68
2021/10/26 00:31:42;;;;;;;7.50;3.78;;;;;;;1.82;95.14;96136.88;5086785;27;20051;-68
2021/10/26 00:34:09;;;;;;;6.93;3.80;;;;;;;1.75;95.83;96130.69;5103188;28;20046;-68
2021/10/26 00:36:36;;;;;;;7.88;3.60;;;;;;;1.64;96.58;96135.09;5104911;27;20044;-67
2021/10/26 00:39:04;;;;;;;8.75;5.00;;;;;;;1.49;97.62;96121.09;5107852;27;20039;-67
2021/10/26 00:41:32;;;;;;;9.52;4.47;;;;;;;1.41;98.75;96123.59;5106658;27;20409;-67
2021/10/26 00:43:59;;;;;;;14.60;5.13;;;;;;;1.33;99.77;96119.97;5103052;28;20497;-67
2021/10/26 00:46:32;;;;;;;9.45;4.75;;;;;;;1.34;100.00;96113.06;5089833;27;20047;-67
2021/10/26 00:49:00;;;;;;;9.63;5.30;;;;;;;1.39;100.00;96126.31;5104954;27;20096;-67
2021/10/26 00:51:29;;;;;;;7.10;4.88;;;;;;;1.42;99.90;96114.94;5103373;28;20051;-68
2021/10/26 00:54:04;;;;;;;13.70;5.25;;;;;;;1.21;100.00;96103.13;5088232;27;20170;-67
2021/10/26 00:56:35;;;;;;;7.32;4.32;;;;;;;1.10;100.00;96101.56;5087564;28;20122;-68
2021/10/26 00:59:02;;;;;;;11.30;5.25;;;;;;;1.19;100.00;96097.34;5109304;27;20733;-68
2021/10/26 01:01:35;;;;;;;8.15;3.58;;;;;;;1.17;100.00;96094.09;5087099;27;20048;-67
2021/10/26 01:04:03;;;;;;;11.27;3.90;;;;;;;1.16;100.00;96086.53;5085265;28;20055;-67
2021/10/26 01:06:30;;;;;;;5.55;3.78;;;;;;;1.13;100.00;96090.19;5103142;27;20105;-68
2021/10/26 01:08:57;;;;;;;7.22;4.13;;;;;;;1.19;100.00;96083.69;5085186;28;20055;-67
2021/10/26 01:11:24;;;;;;;9.65;4.72;;;;;;;1.16;100.00;96074.50;5104256;27;20040;-69
2021/10/26 01:13:53;;;;;;;7.68;3.97;;;;;;;1.21;100.00;96077.47;5076050;27;20051;-68
2021/10/26 01:16:21;;;;;;;9.27;4.40;;;;;;;1.26;100.00;96085.56;5082678;28;20051;-67
2021/10/26 01:18:48;;;;;;;8.50;4.55;;;;;;;1.33;99.81;96091.75;5087920;28;20051;-68
2021/10/26 01:21:18;;;;;;;8.77;4.30;;;;;;;1.35;99.20;96081.31;5092138;27;20051;-68
2021/10/26 01:23:47;;;;;;;7.30;3.72;;;;;;;1.40;98.70;96086.03;5088432;27;20080;-67
2021/10/26 01:26:17;;;;;;;9.70;4.20;;;;;;;1.37;98.49;96081.16;5085475;28;22282;-68
2021/10/26 01:28:46;;;;;;;7.40;4.13;;;;;;;1.37;97.79;96086.31;5085975;28;20066;-68
2021/10/26 01:31:13;;;;;;;10.73;3.92;;;;;;;1.30;97.47;96076.63;5086454;28;20055;-68
2021/10/26 01:33:40;;;;;;;8.95;4.05;;;;;;;1.30;97.24;96076.63;5103946;28;20043;-68
2021/10/26 01:36:15;;;;;;;5.15;3.53;;;;;;;1.25;97.35;96072.88;5089389;28;20514;-68
2021/10/26 01:38:42;;;;;;;8.32;3.80;;;;;;;1.25;97.45;96073.66;5089169;28;20055;-69
2021/10/26 01:41:09;;;;;;;7.43;3.88;;;;;;;1.21;97.78;96067.19;5088248;28;20040;-68
2021/10/26 01:43:37;;;;;;;6.70;3.80;;;;;;;1.12;97.93;96057.78;5094809;28;20424;-69
2021/10/26 01:46:05;;;;;;;5.43;3.40;;;;;;;1.20;98.19;96065.56;5086464;28;20838;-68
2021/10/26 01:48:35;;;;;;;8.55;4.47;;;;;;;1.25;98.25;96062.59;5086994;28;20097;-68
2021/10/26 01:51:03;;;;;;;9.13;4.70;;;;;;;1.20;98.16;96064.78;5087276;28;20138;-68
2021/10/26 01:53:31;;;;;;;8.90;4.10;;;;;;;1.16;98.65;96061.69;5084198;28;20039;-67
2021/10/26 01:55:59;;;;;;;14.43;5.50;;;;;;;1.12;99.20;96058.59;5086722;28;20063;-67
2021/10/26 01:58:37;;;;;;;8.35;4.53;;;;;;;1.00;100.00;96040.97;5086959;28;20044;-68
2021/10/26 02:01:17;;;;;;;8.48;3.75;;;;;;;1.01;100.00;96045.13;5085233;28;20058;-68
2021/10/26 02:03:44;;;;;;;8.55;4.20;;;;;;;1.06;100.00;96053.22;5088650;28;20054;-68
2021/10/26 02:06:11;;;;;;;6.53;3.83;;;;;;;1.05;100.00;96051.63;5087976;28;20546;-68
2021/10/26 02:08:38;;;;;;;7.80;4.93;;;;;;;1.04;100.00;96049.97;5085930;28;20039;-67
2021/10/26 02:11:06;;;;;;;5.10;3.35;;;;;;;0.99;100.00;96044.47;5087798;28;20055;-68
2021/10/26 02:13:34;;;;;;;8.48;3.80;;;;;;;1.05;99.91;96051.63;5089009;28;20559;-68
2021/10/26 02:16:02;;;;;;;6.95;4.15;;;;;;;0.99;99.74;96036.75;5102726;28;20035;-69
2021/10/26 02:18:29;;;;;;;13.52;3.75;;;;;;;1.00;99.84;96044.31;5088767;28;20047;-68
2021/10/26 02:20:59;;;;;;;9.93;4.00;;;;;;;0.91;99.82;96030.59;5087291;28;20051;-68
2021/10/26 02:23:26;;;;;;;8.05;4.07;;;;;;;0.94;99.78;96037.22;5105682;28;20119;-68
2021/10/26 02:25:54;;;;;;;8.57;3.88;;;;;;;1.02;99.83;96051.88;5086939;28;20044;-68
2021/10/26 02:28:22;;;;;;;10.48;3.67;;;;;;;1.05;99.94;96046.47;5121150;27;20047;-68
2021/10/26 02:30:50;;;;;;;8.27;4.07;;;;;;;1.04;99.89;96047.41;5115993;27;20167;-68
2021/10/26 02:33:18;;;;;;;11.77;3.08;;;;;;;1.07;99.75;96049.72;5086301;28;20083;-68
2021/10/26 02:35:46;;;;;;;7.45;3.97;;;;;;;0.92;99.54;96027.09;5089990;28;20074;-68
2021/10/26 02:38:13;;;;;;;6.50;3.92;;;;;;;1.04;99.32;96048.22;5084717;28;20048;-68
2021/10/26 02:40:40;;;;;;;10.32;4.40;;;;;;;0.87;99.28;96020.75;5091080;28;20523;-68
2021/10/26 02:43:07;;;;;;;7.00;3.33;;;;;;;1.02;98.81;96041.63;5090191;27;20043;-67
2021/10/26 02:45:34;;;;;;;8.45;3.45;;;;;;;1.02;98.74;96034.72;5108037;27;20451;-68
2021/10/26 02:48:04;;;;;;;9.60;4.28;;;;;;;0.95;98.72;96024.25;5089308;28;20120;-68
2021/10/26 02:50:31;;;;;;;10.95;4.05;;;;;;;0.99;98.91;96031.63;5106679;27;20043;-68
2021/10/26 02:52:59;;;;;;;10.20;4.55;;;;;;;0.89;100.00;96032.47;5090462;28;20105;-68
2021/10/26 02:55:26;;;;;;;10.43;4.43;;;;;;;0.89;100.00;96032.47;5110704;27;20496;-68
2021/10/26 02:57:53;;;;;;;8.07;3.72;;;;;;;0.89;100.00;96027.34;5090468;27;20071;-68
2021/10/26 03:00:21;;;;;;;7.82;3.97;;;;;;;0.90;100.00;96023.84;5090452;27;20512;-68
2021/10/26 03:02:48;;;;;;;10.75;4.10;;;;;;;0.89;99.78;96027.34;5072954;28;20052;-68
2021/10/26 03:05:15;;;;;;;10.70;4.88;;;;;;;0.87;100.00;96023.31;5071981;28;20128;-67
2021/10/26 03:07:44;;;;;;;8.63;4.15;;;;;;;0.87;100.00;96029.25;5071770;28;20123;-68
2021/10/26 03:10:13;;;;;;;7.30;3.75;;;;;;;0.82;100.00;96021.16;5071075;28;20064;-68
2021/10/26 03:12:40;;;;;;;10.55;4.63;;;;;;;0.74;100.00;96013.38;5055986;28;20056;-68
2021/10/26 03:15:09;;;;;;;13.13;5.18;;;;;;;0.71;100.00;96016.22;5054542;28;20532;-68
2021/10/26 03:17:36;;;;;;;10.13;4.60;;;;;;;0.68;100.00;96019.06;5072701;28;20047;-68
2021/10/26 03:20:29;;;;;;;6.80;4.05;;;;;;;0.63;100.00;96016.09;5067540;28;20691;-68
2021/10/26 03:22:56;;;;;;;10.45;5.13;;;;;;;0.55;100.00;96012.47;5069034;28;20511;-68
2021/10/26 03:25:23;;;;;;;7.35;4.32;;;;;;;0.58;100.00;96019.09;5066959;28;20044;-69
2021/10/26 03:27:50;;;;;;;8.68;5.45;;;;;;;0.57;100.00;96018.28;5066803;28;20055;-68
2021/10/26 03:30:17;;;;;;;9.85;4.63;;;;;;;0.56;100.00;96011.56;5049673;28;20098;-68
2021/10/26 03:32:44;;;;;;;10.43;4.97;;;;;;;0.59;100.00;95999.41;5047608;28;20098;-69
2021/10/26 03:35:31;;;;;;;8.77;4.75;;;;;;;0.64;100.00;96007.47;5068104;28;20068;-68
2021/10/26 03:38:00;;;;;;;13.55;5.25;;;;;;;0.54;100.00;95992.09;5069210;28;21128;-68
2021/10/26 03:40:27;;;;;;;10.98;6.43;;;;;;;0.57;100.00;96002.88;5068143;28;20050;-68
2021/10/26 03:42:54;;;;;;;9.02;4.80;;;;;;;0.62;100.00;96010.19;5069799;28;20149;-68
2021/10/26 03:45:21;;;;;;;15.07;5.32;;;;;;;0.57;100.00;96002.88;5069884;28;20036;-68
2021/10/26 03:47:48;;;;;;;9.82;5.95;;;;;;;0.56;100.00;96006.41;5069155;28;20074;-68
2021/10/26 03:50:15;;;;;;;12.00;5.82;;;;;;;0.52;100.00;96010.22;5069500;28;20399;-69
2021/10/26 03:52:42;;;;;;;9.35;5.32;;;;;;;0.52;100.00;96010.22;5066389;28;20032;-68
2021/10/26 03:55:11;;;;;;;9.00;4.65;;;;;;;0.52;100.00;95997.41;5065226;28;20044;-68
2021/10/26 03:57:43;;;;;;;10.02;5.43;;;;;;;0.50;100.00;96012.09;5051721;28;20067;-69
2021/10/26 04:00:10;;;;;;;9.95;6.22;;;;;;;0.51;100.00;96006.03;5067130;28;20163;-68
2021/10/26 04:02:43;;;;;;;13.70;5.85;;;;;;;0.47;100.00;96007.25;5078956;28;20062;-68
2021/10/26 04:05:20;;;;;;;9.18;5.03;;;;;;;0.44;100.00;95999.84;5081968;28;20478;-68
2021/10/26 04:07:54;;;;;;;9.95;5.10;;;;;;;0.43;100.00;96011.03;5081360;28;20036;-68
2021/10/26 04:10:32;;;;;;;20.37;6.43;;;;;;;0.38;100.00;95997.84;5082653;28;20658;-68
2021/10/26 04:13:02;;;;;;;10.13;4.78;;;;;;;0.29;100.00;96003.78;5081591;28;20048;-68
2021/10/26 04:15:30;;;;;;;11.82;5.80;;;;;;;0.30;100.00;96005.41;5083501;28;20143;-68
2021/10/26 04:17:57;;;;;;;8.90;5.20;;;;;;;0.32;100.00;95994.06;5081482;28;20051;-68
2021/10/26 04:20:24;;;;;;;11.90;5.68;;;;;;;0.41;100.00;95997.53;5081535;28;20071;-68
2021/10/26 04:22:51;;;;;;;13.63;5.95;;;;;;;0.42;100.00;95983.78;5081802;28;20063;-68
2021/10/26 04:25:18;;;;;;;17.02;6.72;;;;;;;0.57;100.00;95989.28;5082582;28;20059;-68
2021/10/26 04:27:45;;;;;;;10.10;5.10;;;;;;;0.49;100.00;95964.34;5082032;28;20440;-68
2021/10/26 04:30:16;;;;;;;12.93;6.03;;;;;;;0.73;100.00;95997.16;5079988;28;20044;-68
2021/10/26 04:32:49;;;;;;;11.23;5.68;;;;;;;0.76;100.00;95990.97;5083651;28;20048;-68
2021/10/26 04:35:16;;;;;;;14.23;7.90;;;;;;;0.91;100.00;96004.13;5081241;28;20051;-68
2021/10/26 04:37:43;;;;;;;10.85;4.85;;;;;;;0.94;100.00;96002.09;5084777;28;20043;-68
2021/10/26 04:40:10;;;;;;;9.70;5.32;;;;;;;0.97;100.00;96003.56;5079349;28;20051;-68
2021/10/26 04:42:38;;;;;;;10.13;5.65;;;;;;;0.91;100.00;96004.13;5080719;28;20043;-68
2021/10/26 04:45:08;;;;;;;10.30;5.70;;;;;;;0.93;100.00;96003.03;5082007;28;20510;-68
2021/10/26 04:47:36;;;;;;;9.85;5.95;;;;;;;0.86;100.00;96004.53;5081316;28;20042;-68
2021/10/26 04:50:04;;;;;;;11.07;5.47;;;;;;;0.91;100.00;95999.00;5078555;28;20089;-68
2021/10/26 04:52:36;;;;;;;13.57;6.75;;;;;;;0.88;99.99;96000.09;5079711;28;20051;-68
2021/10/26 04:55:03;;;;;;;12.98;6.90;;;;;;;0.62;100.00;95994.00;5078024;28;20039;-68
2021/10/26 04:57:30;;;;;;;9.27;5.50;;;;;;;0.51;100.00;95993.22;5079672;28;20532;-67
2021/10/26 05:00:23;;;;;;;12.88;6.53;;;;;;;0.57;100.00;96002.09;5074028;28;20084;-67
2021/10/26 05:02:50;;;;;;;10.80;6.85;;;;;;;0.57;100.00;95997.75;5090400;27;20056;-67
2021/10/26 05:05:17;;;;;;;9.18;4.90;;;;;;;0.53;100.00;95990.50;5052548;28;20052;-68
2021/10/26 05:07:44;;;;;;;10.48;6.60;;;;;;;0.45;100.00;95988.66;5059017;28;20552;-67
2021/10/26 05:10:11;;;;;;;11.73;5.60;;;;;;;0.47;100.00;95997.00;5060965;28;20056;-68
2021/10/26 05:12:43;;;;;;;10.77;5.55;;;;;;;0.45;100.00;96004.03;5058778;28;20044;-67
2021/10/26 05:15:19;;;;;;;14.35;7.63;;;;;;;0.40;100.00;95995.94;5053623;28;20056;-68
2021/10/26 05:18:19;;;;;;;11.45;6.18;;;;;;;0.48;100.00;96005.50;5058822;28;20053;-68
2021/10/26 05:21:07;;;;;;;12.27;5.95;;;;;;;0.52;100.00;96015.34;5059935;28;20413;-68
2021/10/26 05:24:08;;;;;;;16.88;7.35;;;;;;;0.51;100.00;96008.59;5036828;28;20057;-68
2021/10/26 05:26:40;;;;;;;19.13;10.23;;;;;;;0.51;100.00;96008.59;5061431;28;20041;-68
2021/10/26 05:29:09;;;;;;;18.67;9.73;;;;;;;0.54;100.00;96013.44;5058588;28;20041;-68
2021/10/26 05:31:39;;;;;;;19.25;10.00;;;;;;;0.61;100.00;96018.00;5060232;28;20044;-68
2021/10/26 05:34:07;;;;;;;18.02;8.77;;;;;;;0.59;100.00;96005.31;5090477;28;20122;-68
2021/10/26 05:36:35;;;;;;;16.58;7.28;;;;;;;0.63;100.00;96005.84;5060289;28;20488;-67
2021/10/26 05:39:07;;;;;;;13.65;7.70;;;;;;;0.71;100.00;96011.09;5061311;28;20074;-68
2021/10/26 05:41:35;;;;;;;12.90;7.15;;;;;;;0.78;100.00;96019.84;5061700;28;20047;-68
2021/10/26 05:44:03;;;;;;;16.45;7.55;;;;;;;0.86;100.00;96021.69;5060093;28;20055;-68
2021/10/26 05:46:31;;;;;;;15.48;6.60;;;;;;;1.05;100.00;96025.94;5060626;28;20040;-67
2021/10/26 05:48:59;;;;;;;40.88;18.10;;;;;;;1.02;100.00;96013.41;5058807;28;20044;-67
2021/10/26 05:51:26;;;;;;;18.67;10.05;;;;;;;1.10;100.00;96024.56;5060719;28;20044;-68
2021/10/26 05:53:53;;;;;;;10.30;6.30;;;;;;;1.10;100.00;96018.63;5061868;28;20049;-68
2021/10/26 05:56:19;;;;;;;12.35;6.07;;;;;;;1.01;100.00;96004.06;5059097;28;20052;-68
2021/10/26 05:58:46;;;;;;;12.50;6.65;;;;;;;1.24;100.00;96028.44;5060554;28;20032;-68
2021/10/26 06:01:14;;;;;;;11.35;7.03;;;;;;;1.31;100.00;96026.91;5064032;28;20079;-68
2021/10/26 06:03:41;;;;;;;12.30;6.53;;;;;;;1.39;100.00;96027.91;5102702;28;20108;-68
2021/10/26 06:06:08;;;;;;;15.60;8.00;;;;;;;1.45;100.00;96032.50;5084083;28;20162;-66
2021/10/26 06:08:36;;;;;;;18.02;8.50;;;;;;;1.49;100.00;96018.41;5102344;28;20032;-65
2021/10/26 06:11:08;;;;;;;30.65;16.13;;;;;;;1.51;100.00;96021.63;5080424;28;20097;-65
2021/10/26 06:13:39;;;;;;;27.02;14.00;;;;;;;1.66;100.00;96030.47;5088188;28;20079;-66
2021/10/26 06:16:06;;;;;;;21.60;13.10;;;;;;;1.83;100.00;96035.75;5077012;28;20126;-67
2021/10/26 06:18:37;;;;;;;17.48;10.18;;;;;;;1.93;100.00;96031.34;5088364;28;20545;-68
2021/10/26 06:21:05;;;;;;;18.65;11.00;;;;;;;2.03;100.00;96032.06;5089315;28;20480;-67
2021/10/26 06:23:31;;;;;;;27.48;12.82;;;;;;;2.19;100.00;96025.44;5088068;28;20509;-66
2021/10/26 06:26:00;;;;;;;20.10;12.80;;;;;;;2.31;100.00;96024.25;5091142;27;20188;-67
2021/10/26 06:28:40;;;;;;;18.75;10.35;;;;;;;2.36;100.00;96016.91;5090725;28;20502;-67
2021/10/26 06:31:07;;;;;;;17.30;8.68;;;;;;;2.62;100.00;96023.81;5089698;27;20115;-67
2021/10/26 06:33:40;;;;;;;14.60;8.35;;;;;;;2.71;100.00;96022.91;5087236;28;20047;-67
2021/10/26 06:36:15;;;;;;;18.73;7.80;;;;;;;2.86;100.00;96023.97;5091083;28;20123;-67
2021/10/26 06:38:44;;;;;;;13.32;8.88;;;;;;;3.03;100.00;96021.47;5085612;28;20159;-67
2021/10/26 06:41:11;;;;;;;15.25;7.97;;;;;;;3.15;100.00;96017.66;5090419;28;20043;-67
2021/10/26 06:43:41;;;;;;;26.15;11.18;;;;;;;3.25;100.00;96013.16;5104955;27;20078;-67
2021/10/26 06:46:27;;;;;;;17.38;9.60;;;;;;;3.44;100.00;96016.47;5099830;28;20435;-66
2021/10/26 06:49:12;;;;;;;12.30;7.78;;;;;;;3.58;100.00;96017.59;5102149;28;20046;-67
2021/10/26 06:51:57;;;;;;;14.07;8.43;;;;;;;3.73;100.00;96020.38;5098488;28;20176;-66
2021/10/26 06:54:43;;;;;;;11.85;6.30;;;;;;;3.84;100.00;96022.66;5099977;27;20062;-67
2021/10/26 06:57:29;;;;;;;12.90;7.88;;;;;;;3.94;100.00;96028.47;5101823;27;20583;-67
2021/10/26 07:00:05;;;;;;;12.27;6.50;;;;;;;4.12;100.00;96024.91;5104297;27;20101;-67
2021/10/26 07:02:54;;;;;;;15.00;6.18;;;;;;;4.19;100.00;96031.84;5080277;28;20146;-66
2021/10/26 07:05:41;;;;;;;11.27;6.68;;;;;;;4.16;100.00;96028.78;5065952;28;20056;-66
2021/10/26 07:08:26;;;;;;;11.85;6.72;;;;;;;4.07;100.00;96032.31;5101651;27;20047;-66
2021/10/26 07:11:15;;;;;;;9.80;6.30;;;;;;;4.00;100.00;96030.41;5102121;27;20043;-66
2021/10/26 07:13:42;;;;;;;11.43;6.13;;;;;;;3.89;100.00;96030.72;5084592;27;20124;-66
2021/10/26 07:16:11;;;;;;;10.85;6.00;;;;;;;3.89;100.00;96015.25;5068750;28;20051;-65
2021/10/26 07:18:38;;;;;;;9.98;5.38;;;;;;;4.06;100.00;96035.88;5088326;27;20070;-65
2021/10/26 07:21:05;;;;;;;11.73;6.43;;;;;;;4.11;100.00;96028.47;5090832;27;20048;-65
2021/10/26 07:23:50;;;;;;;15.65;7.30;;;;;;;4.22;100.00;96036.69;5089594;28;20546;-66
2021/10/26 07:26:33;;;;;;;14.25;8.10;;;;;;;4.19;99.83;96015.56;5092972;27;20043;-66
2021/10/26 07:29:01;;;;;;;10.32;5.43;;;;;;;4.45;100.00;96030.06;5090413;27;20123;-66
2021/10/26 07:31:28;;;;;;;13.68;7.03;;;;;;;4.43;99.75;96032.00;5091674;28;20051;-66
2021/10/26 07:33:58;;;;;;;14.23;7.45;;;;;;;4.47;99.56;96022.97;5085049;28;20122;-66
2021/10/26 07:36:32;;;;;;;21.38;10.63;;;;;;;4.62;99.68;96031.66;5085888;28;20501;-67
2021/10/26 07:39:03;;;;;;;17.08;9.10;;;;;;;4.65;98.39;96031.34;5102691;27;20131;-66
2021/10/26 07:41:29;;;;;;;13.93;6.88;;;;;;;4.69;98.21;96030.03;5066578;28;20504;-66
2021/10/26 07:44:15;;;;;;;16.05;8.55;;;;;;;4.75;97.95;96016.47;5101686;27;20051;-66
2021/10/26 07:47:02;;;;;;;14.88;7.07;;;;;;;4.91;98.43;96025.13;5101280;27;20048;-67
2021/10/26 07:49:30;;;;;;;16.27;8.45;;;;;;;4.91;97.07;96009.66;5089117;28;20046;-66
2021/10/26 07:52:04;;;;;;;18.50;9.50;;;;;;;4.97;97.89;96009.00;5088459;28;20044;-67
2021/10/26 07:54:32;;;;;;;16.90;7.97;;;;;;;5.14;96.26;96010.53;5089378;28;20122;-66
2021/10/26 07:57:01;;;;;;;11.13;6.50;;;;;;;5.17;95.63;96015.38;5087698;28;20500;-67
2021/10/26 07:59:28;;;;;;;14.50;8.52;;;;;;;5.25;95.44;96016.31;5081683;28;20123;-67
2021/10/26 08:01:55;;;;;;;13.32;7.45;;;;;;;5.20;94.44;96003.09;5085665;28;20058;-66
2021/10/26 08:04:43;;;;;;;10.68;6.13;;;;;;;5.32;94.72;96018.03;5104232;27;20570;-67
2021/10/26 08:07:18;;;;;;;15.65;7.60;;;;;;;5.45;93.74;96012.31;5085631;27;20092;-67
2021/10/26 08:09:48;;;;;;;11.32;6.90;;;;;;;5.62;95.24;96001.88;5088015;28;20048;-66
2021/10/26 08:12:15;;;;;;;12.48;7.13;;;;;;;5.66;92.35;96003.97;5090695;28;20039;-67
2021/10/26 08:14:43;;;;;;;13.25;8.05;;;;;;;5.60;92.28;96003.84;5088057;28;20525;-67
2021/10/26 08:17:10;;;;;;;10.05;6.20;;;;;;;5.88;92.30;95997.19;5086309;28;20094;-67
2021/10/26 08:19:42;;;;;;;9.57;5.88;;;;;;;6.01;91.01;96006.19;5084667;28;20058;-67
2021/10/26 08:22:16;;;;;;;15.65;9.30;;;;;;;6.05;89.03;96004.88;5087659;28;20054;-67
2021/10/26 08:24:52;;;;;;;10.68;6.18;;;;;;;6.28;89.63;96003.09;5088515;28;20550;-68
2021/10/26 08:27:23;;;;;;;9.48;5.75;;;;;;;6.44;89.37;95996.13;5087238;28;20073;-67
2021/10/26 08:33:00;;;;;;;12.07;6.13;;;;;;;6.45;87.22;96002.94;5084362;28;20062;-67
2021/10/26 08:35:29;;;;;;;33.33;15.30;;;;;;;6.38;87.06;95996.84;5085815;28;20130;-67
2021/10/26 08:38:05;;;;;;;11.85;7.30;;;;;;;6.36;86.89;96004.00;5088121;28;20058;-67
2021/10/26 08:40:46;;;;;;;8.90;6.03;;;;;;;6.36;88.04;95996.22;5088450;28;20050;-67
2021/10/26 08:43:22;;;;;;;11.07;5.80;;;;;;;6.63;86.99;95995.63;5084737;28;20039;-68
2021/10/26 08:45:51;;;;;;;11.70;6.75;;;;;;;6.68;84.89;95995.91;5086918;28;20040;-68
2021/10/26 08:48:23;;;;;;;15.88;7.22;;;;;;;6.70;85.06;96001.72;5086106;28;20063;-68
2021/10/26 08:51:00;;;;;;;19.40;11.30;;;;;;;7.00;85.54;95985.38;5102478;28;20125;-67
2021/10/26 08:53:38;;;;;;;15.00;9.85;;;;;;;7.30;81.26;96001.69;5088587;28;20046;-68
2021/10/26 08:56:25;;;;;;;20.95;10.23;;;;;;;7.40;79.92;95994.44;5103934;27;20673;-68
2021/10/26 08:59:10;;;;;;;12.10;6.53;;;;;;;7.69;81.28;96000.53;5105031;27;20057;-67
2021/10/26 09:01:58;;;;;;;9.40;6.18;;;;;;;8.02;79.41;95989.66;5083957;28;20059;-68
2021/10/26 09:04:31;;;;;;;11.23;5.97;;;;;;;8.33;78.97;95985.94;5083198;28;20040;-68
2021/10/26 09:07:04;;;;;;;14.73;9.68;;;;;;;8.31;75.09;95991.31;5081231;28;20044;-68
2021/10/26 09:09:36;;;;;;;17.80;9.32;;;;;;;8.24;76.63;95987.84;5081592;28;20169;-68
2021/10/26 09:18:53;;;;;;;12.50;8.25;;;;;;;8.51;73.00;95994.06;5043534;28;20120;-68
2021/10/26 09:21:40;;;;;;;16.95;9.60;;;;;;;8.94;74.24;95983.56;5083786;28;20044;-67
2021/10/26 09:24:15;;;;;;;14.18;8.98;;;;;;;9.08;73.02;95983.63;5083774;28;20509;-68
2021/10/26 09:26:52;;;;;;;19.58;11.65;;;;;;;9.34;70.91;95988.91;5082680;28;20039;-68
2021/10/26 09:29:41;;;;;;;15.80;9.45;;;;;;;9.14;71.92;95982.84;5063032;28;20091;-68
2021/10/26 09:32:33;;;;;;;11.30;5.90;;;;;;;9.29;69.99;95965.34;5071849;28;20064;-67
2021/10/26 09:35:03;;;;;;;15.20;9.68;;;;;;;9.88;72.71;95965.66;5084000;28;20036;-68
2021/10/26 09:37:38;;;;;;;19.88;9.85;;;;;;;9.91;69.35;95960.06;5081814;28;20086;-68
2021/10/26 09:40:07;;;;;;;10.77;6.18;;;;;;;10.14;68.35;95959.69;5082102;28;20054;-67
2021/10/26 09:42:44;;;;;;;9.93;6.30;;;;;;;10.57;66.14;95956.69;5082131;28;20089;-68
2021/10/26 09:45:14;;;;;;;12.32;7.47;;;;;;;10.68;67.21;95940.44;5082505;28;20051;-68
2021/10/26 09:47:43;;;;;;;10.32;6.93;;;;;;;10.81;61.60;95942.19;5081189;28;20043;-67
2021/10/26 09:50:12;;;;;;;9.20;5.40;;;;;;;11.10;62.31;95934.88;5084366;28;20048;-67
2021/10/26 09:52:43;;;;;;;8.40;5.05;;;;;;;10.99;61.35;95927.72;5081433;28;20051;-68
2021/10/26 09:55:24;;;;;;;8.73;5.50;;;;;;;11.08;60.64;95924.66;5083500;28;20040;-68
2021/10/26 09:58:02;;;;;;;11.98;6.82;;;;;;;10.83;62.74;95923.75;5081401;28;20032;-68
2021/10/26 10:00:31;;;;;;;9.65;6.20;;;;;;;11.33;61.61;95912.72;5083889;28;20040;-66
2021/10/26 10:03:01;;;;;;;8.50;5.43;;;;;;;11.86;59.33;95912.38;5101935;28;20117;-67
2021/10/26 10:05:30;;;;;;;8.13;4.40;;;;;;;12.08;56.77;95904.22;5106028;28;20504;-67
2021/10/26 10:07:58;;;;;;;9.20;4.47;;;;;;;11.82;57.57;95900.78;5104318;28;20039;-67
2021/10/26 10:10:43;;;;;;;6.38;4.60;;;;;;;12.57;56.91;95902.56;5104676;28;20088;-68
2021/10/26 10:13:10;;;;;;;7.10;4.75;;;;;;;12.64;54.40;95892.84;5101782;28;20040;-67
2021/10/26 10:15:40;;;;;;;5.13;3.90;;;;;;;12.36;54.91;95886.28;5103210;28;20046;-68
2021/10/26 10:18:07;;;;;;;9.15;4.68;;;;;;;12.30;55.35;95887.16;5103154;28;20038;-68
2021/10/26 10:20:34;;;;;;;5.75;4.63;;;;;;;12.34;55.94;95867.41;5103073;28;20058;-67
2021/10/26 10:23:01;;;;;;;7.82;5.05;;;;;;;12.58;55.38;95867.56;5103470;28;20047;-67
2021/10/26 10:25:30;;;;;;;5.75;4.10;;;;;;;12.85;51.11;95877.75;5102839;28;20054;-68
2021/10/26 10:27:58;;;;;;;5.82;4.20;;;;;;;13.35;51.26;95874.91;5104528;28;20099;-67
2021/10/26 10:30:25;;;;;;;6.03;4.18;;;;;;;13.88;49.87;95861.06;5101617;28;20039;-68
2021/10/26 10:32:52;;;;;;;6.95;4.50;;;;;;;13.82;50.02;95850.69;5100950;28;20148;-68
2021/10/26 10:35:19;;;;;;;5.95;4.90;;;;;;;13.24;49.33;95859.97;5102993;28;20043;-67
2021/10/26 10:37:49;;;;;;;4.18;3.47;;;;;;;13.80;47.91;95843.03;5101891;28;20437;-68
2021/10/26 10:40:24;;;;;;;8.02;4.72;;;;;;;14.18;48.08;95849.66;5102093;28;20039;-67
2021/10/26 10:42:52;;;;;;;7.47;4.63;;;;;;;13.95;48.08;95846.03;5103634;28;20039;-68
2021/10/26 10:45:26;;;;;;;5.72;3.85;;;;;;;13.62;46.68;95845.75;5103759;28;20055;-67
2021/10/26 10:47:55;;;;;;;7.32;4.03;;;;;;;13.97;49.15;95832.69;5102151;28;20423;-67
2021/10/26 10:50:37;;;;;;;9.35;5.60;;;;;;;14.34;47.24;95833.25;5083914;28;20462;-67
2021/10/26 10:53:19;;;;;;;9.40;6.28;;;;;;;14.47;47.34;95815.69;5101242;28;20120;-68
2021/10/26 10:55:52;;;;;;;6.15;4.38;;;;;;;14.80;46.55;95824.75;5102172;28;20424;-68
2021/10/26 10:58:30;;;;;;;8.95;5.05;;;;;;;14.60;45.83;95823.31;5090109;28;20043;-68
2021/10/26 11:01:27;;;;;;;9.70;4.43;;;;;;;14.00;46.98;95815.75;5104051;27;20040;-68
2021/10/26 11:03:55;;;;;;;5.75;4.00;;;;;;;14.49;47.57;95808.38;5106606;28;20032;-68
2021/10/26 11:06:40;;;;;;;6.63;3.85;;;;;;;15.00;45.99;95798.91;5104856;27;20101;-68
2021/10/26 11:09:27;;;;;;;7.72;4.75;;;;;;;14.45;45.38;95796.78;5107476;27;20047;-68
2021/10/26 11:12:32;;;;;;;7.70;4.53;;;;;;;14.61;45.68;95790.84;5089878;28;20043;-69
2021/10/26 11:15:03;;;;;;;9.40;3.58;;;;;;;15.40;43.88;95787.53;5091277;28;20124;-68
2021/10/26 11:17:37;;;;;;;5.95;4.00;;;;;;;15.13;44.14;95792.59;5107732;27;20051;-68
2021/10/26 11:20:26;;;;;;;6.78;4.15;;;;;;;15.85;42.55;95783.25;5104170;27;20086;-69
2021/10/26 11:23:03;;;;;;;7.25;4.28;;;;;;;16.39;40.60;95777.44;5110162;27;20476;-69
2021/10/26 11:25:36;;;;;;;4.93;4.13;;;;;;;15.84;42.08;95776.41;5101716;27;20577;-69
2021/10/26 11:28:18;;;;;;;6.15;3.67;;;;;;;15.74;41.75;95771.81;5108193;27;20458;-69
2021/10/26 11:30:44;;;;;;;5.68;3.47;;;;;;;16.32;41.17;95767.06;5106074;27;20458;-69
2021/10/26 11:33:16;;;;;;;5.00;3.35;;;;;;;16.14;41.75;95760.28;5088601;28;20104;-69
2021/10/26 11:36:05;;;;;;;6.32;3.80;;;;;;;16.21;41.73;95763.53;5100500;27;20119;-69
2021/10/26 11:38:34;;;;;;;6.70;3.53;;;;;;;16.82;39.16;95760.03;5104842;27;20139;-68
2021/10/26 11:41:03;;;;;;;4.07;2.80;;;;;;;17.04;38.04;95751.34;5102347;28;20036;-69
2021/10/26 11:43:41;;;;;;;5.47;4.05;;;;;;;16.37;38.95;95753.22;5103993;27;20052;-69
2021/10/26 11:46:12;;;;;;;3.75;2.40;;;;;;;16.64;39.27;95748.00;5108250;27;20115;-69
2021/10/26 11:48:51;;;;;;;8.07;3.97;;;;;;;16.96;39.25;95748.09;5105240;27;20050;-69
2021/10/26 11:51:39;;;;;;;4.53;3.08;;;;;;;16.59;39.70;95735.59;5105148;27;20505;-69
2021/10/26 11:54:09;;;;;;;3.63;2.75;;;;;;;16.91;39.95;95732.25;5090319;27;20067;-66
2021/10/26 11:56:41;;;;;;;6.15;4.18;;;;;;;16.68;38.66;95729.91;5108571;27;20531;-67
2021/10/26 11:59:13;;;;;;;9.07;5.85;;;;;;;16.92;37.88;95733.84;5090192;28;20128;-67
2021/10/26 12:02:14;;;;;;;28.47;19.23;;;;;;;16.95;36.70;95728.09;5102044;27;20512;-67
2021/10/26 12:04:55;;;;;;;5.90;3.80;;;;;;;16.38;39.08;95728.50;5085122;28;21089;-67